createdAt,value
2022-09-05T00:02:48.931Z,97431.16
2022-09-05T00:05:33.834Z,97432.69
2022-09-05T00:08:17.732Z,97424.31
2022-09-05T00:11:40.030Z,97422.06
2022-09-05T00:14:07.506Z,97421.34
2022-09-05T00:16:40.013Z,97418.38
2022-09-05T00:24:23.276Z,97413.56
2022-09-05T00:24:30.904Z,97412.13
2022-09-05T00:25:46.570Z,97410.81
2022-09-05T00:28:31.446Z,97407.09
2022-09-05T00:31:50.874Z,97414.56
2022-09-05T00:34:22.005Z,97409.78
2022-09-05T00:36:54.876Z,97406.69
2022-09-05T00:39:37.955Z,97406.59
2022-09-05T00:42:15.543Z,97409.94
2022-09-05T00:44:54.094Z,97414.75
2022-09-05T00:47:30.945Z,97411.28
2022-09-05T00:50:03.900Z,97407.72
2022-09-05T00:53:06.324Z,97415.16
2022-09-05T00:55:46.714Z,97414.44
2022-09-05T00:59:04.287Z,97414.44
2022-09-05T01:01:39.067Z,97414.94
2022-09-05T01:04:42.791Z,97416.97
2022-09-05T01:07:29.776Z,97411.84
2022-09-05T01:10:04.502Z,97410.31
2022-09-05T01:13:06.326Z,97409.47
2022-09-05T01:16:05.500Z,97410.09
2022-09-05T01:18:41.389Z,97418.97
2022-09-05T01:21:19.874Z,97417.53
2022-09-05T01:23:50.565Z,97416.22
2022-09-05T01:26:23.619Z,97416.81
2022-09-05T01:29:18.364Z,97412.91
2022-09-05T01:32:20.665Z,97414.13
2022-09-05T01:34:58.349Z,97415.44
2022-09-05T01:37:44.840Z,97417.50
2022-09-05T01:40:28.725Z,97416.56
2022-09-05T01:42:55.804Z,97412.47
2022-09-05T01:45:45.540Z,97413.06
2022-09-05T01:48:33.889Z,97410.31
2022-09-05T01:51:29.463Z,97414.41
2022-09-05T01:54:23.959Z,97414.91
2022-09-05T01:56:54.153Z,97409.16
2022-09-05T01:59:45.910Z,97418.00
2022-09-05T02:02:42.010Z,97409.63
2022-09-05T02:05:51.052Z,97399.81
2022-09-05T02:08:51.710Z,97412.03
2022-09-05T02:11:35.484Z,97408.69
2022-09-05T02:14:27.046Z,97407.75
2022-09-05T02:17:47.993Z,97417.81
2022-09-05T02:20:28.664Z,97416.41
2022-09-05T02:23:40.468Z,97417.34
2022-09-05T02:26:03.456Z,97413.88
2022-09-05T02:28:40.877Z,97409.59
2022-09-05T02:31:25.174Z,97410.94
2022-09-05T02:34:01.954Z,97407.56
2022-09-05T02:36:45.662Z,97406.84
2022-09-05T02:45:04.138Z,97395.69
2022-09-05T02:45:20.772Z,97401.81
2022-09-05T02:45:39.468Z,97399.44
2022-09-05T02:48:33.353Z,97400.75
2022-09-05T02:57:27.700Z,97395.25
2022-09-05T02:57:39.467Z,97395.97
2022-09-05T02:57:47.163Z,97399.34
2022-09-05T03:00:11.356Z,97400.53
2022-09-05T03:02:58.465Z,97396.97
2022-09-05T03:05:31.539Z,97399.00
2022-09-05T03:08:16.078Z,97389.41
2022-09-05T03:10:53.961Z,97386.53
2022-09-05T03:13:54.358Z,97396.09
2022-09-05T03:16:58.897Z,97403.66
2022-09-05T03:19:46.481Z,97395.16
2022-09-05T03:22:16.504Z,97404.63
2022-09-05T03:25:01.402Z,97398.19
2022-09-05T03:28:05.149Z,97397.84
2022-09-05T03:30:43.742Z,97397.59
2022-09-05T03:33:22.910Z,97396.38
2022-09-05T03:35:58.813Z,97402.03
2022-09-05T03:39:16.506Z,97390.63
2022-09-05T03:41:49.706Z,97394.59
2022-09-05T03:44:37.642Z,97392.44
2022-09-05T03:47:19.171Z,97398.41
2022-09-05T03:53:18.015Z,97400.34
2022-09-05T03:57:13.235Z,97403.56
2022-09-05T03:57:26.494Z,97399.75
2022-09-05T03:59:10.654Z,97409.94
2022-09-05T04:04:37.913Z,97405.75
2022-09-05T04:08:15.463Z,97408.13
2022-09-05T04:08:17.615Z,97417.84
2022-09-05T04:10:33.276Z,97409.59
2022-09-05T04:13:03.530Z,97417.72
2022-09-05T04:15:45.649Z,97411.47
2022-09-05T04:18:18.353Z,97414.94
2022-09-05T04:21:18.774Z,97411.97
2022-09-05T04:24:00.478Z,97414.59
2022-09-05T04:26:49.114Z,97414.50
2022-09-05T04:29:35.566Z,97410.78
2022-09-05T04:32:18.833Z,97416.03
2022-09-05T04:35:15.434Z,97414.16
2022-09-05T04:37:59.463Z,97424.19
2022-09-05T04:40:51.171Z,97419.25
2022-09-05T04:43:31.440Z,97423.34
2022-09-05T04:46:18.761Z,97427.66
2022-09-05T04:49:02.382Z,97439.50
2022-09-05T04:51:47.458Z,97444.28
2022-09-05T04:54:42.182Z,97444.28
2022-09-05T04:57:13.872Z,97448.09
2022-09-05T05:03:26.142Z,97443.22
2022-09-05T05:06:11.749Z,97448.72
2022-09-05T05:06:17.108Z,97449.44
2022-09-05T05:08:40.993Z,97463.91
2022-09-05T05:16:17.284Z,97466.19
2022-09-05T05:18:11.320Z,97469.41
2022-09-05T05:18:13.274Z,97474.19
2022-09-05T05:20:41.941Z,97470.00
2022-09-05T05:23:07.812Z,97471.44
2022-09-05T05:25:45.533Z,97479.47
2022-09-05T05:28:25.088Z,97485.44
2022-09-05T05:30:53.967Z,97482.09
2022-09-05T05:33:33.830Z,97487.72
2022-09-05T05:36:02.130Z,97489.97
2022-09-05T05:38:39.368Z,97490.94
2022-09-05T05:41:18.596Z,97489.28
2022-09-05T05:43:46.749Z,97489.63
2022-09-05T05:46:16.759Z,97492.97
2022-09-05T05:48:51.789Z,97498.84
2022-09-05T05:51:34.649Z,97498.81
2022-09-05T05:54:40.397Z,97506.38
2022-09-05T05:57:19.003Z,97510.78
2022-09-05T06:00:04.748Z,97517.25
2022-09-05T06:03:26.457Z,97518.31
2022-09-05T06:06:16.213Z,97511.25
2022-09-05T06:12:40.136Z,97516.22
2022-09-05T06:15:02.636Z,97517.03
2022-09-05T06:15:34.233Z,97519.25
2022-09-05T06:18:28.134Z,97524.09
2022-09-05T06:22:09.227Z,97526.09
2022-09-05T06:24:54.435Z,97531.97
2022-09-05T06:28:01.627Z,97532.41
2022-09-05T06:30:59.270Z,97523.19
2022-09-05T06:34:06.910Z,97524.63
2022-09-05T06:37:06.405Z,97525.91
2022-09-05T06:39:43.781Z,97530.75
2022-09-05T06:42:55.030Z,97524.63
2022-09-05T06:45:40.288Z,97532.28
2022-09-05T06:48:17.168Z,97537.75
2022-09-05T06:51:14.658Z,97528.91
2022-09-05T06:53:48.367Z,97533.63
2022-09-05T06:56:25.471Z,97530.13
2022-09-05T06:59:23.475Z,97541.09
2022-09-05T07:02:01.646Z,97555.41
2022-09-05T07:05:37.546Z,97553.22
2022-09-05T07:08:13.619Z,97554.50
2022-09-05T07:11:19.139Z,97548.84
2022-09-05T07:13:56.780Z,97541.09
2022-09-05T07:16:29.927Z,97546.91
2022-09-05T07:19:15.865Z,97543.81
2022-09-05T07:21:49.779Z,97544.84
2022-09-05T07:24:28.165Z,97546.72
2022-09-05T07:27:08.962Z,97544.41
2022-09-05T07:30:00.716Z,97548.34
2022-09-05T07:32:29.819Z,97550.31
2022-09-05T07:34:57.651Z,97541.91
2022-09-05T07:37:28.913Z,97546.59
2022-09-05T07:40:04.060Z,97552.63
2022-09-05T07:43:09.472Z,97543.94
2022-09-05T07:45:55.387Z,97549.81
2022-09-05T07:48:35.193Z,97549.53
2022-09-05T07:53:43.605Z,97547.25
2022-09-05T07:57:10.878Z,97550.44
2022-09-05T07:59:53.265Z,97552.66
2022-09-05T08:02:20.126Z,97550.69
2022-09-05T08:04:46.963Z,97553.47
2022-09-05T08:07:46.073Z,97559.34
2022-09-05T08:10:10.253Z,97559.75
2022-09-05T08:13:22.969Z,97547.53
2022-09-05T08:16:09.960Z,97555.47
2022-09-05T08:18:22.725Z,97554.50
2022-09-05T08:20:58.871Z,97563.94
2022-09-05T08:23:53.261Z,97561.53
2022-09-05T08:26:48.658Z,97550.84
2022-09-05T08:29:37.690Z,97548.53
2022-09-05T08:32:35.874Z,97547.56
2022-09-05T08:35:16.087Z,97546.63
2022-09-05T08:37:44.396Z,97541.56
2022-09-05T08:40:38.382Z,97540.03
2022-09-05T08:46:36.633Z,97551.50
2022-09-05T08:46:40.134Z,97545.94
2022-09-05T08:49:46.336Z,97552.97
2022-09-05T08:52:55.362Z,97545.97
2022-09-05T08:55:46.964Z,97537.88
2022-09-05T08:58:38.351Z,97532.53
2022-09-05T09:01:08.016Z,97532.19
2022-09-05T09:03:53.404Z,97530.53
2022-09-05T09:06:38.914Z,97519.91
2022-09-05T09:09:13.751Z,97532.22
2022-09-05T09:12:04.110Z,97530.31
2022-09-05T09:14:32.813Z,97526.16
2022-09-05T09:17:35.138Z,97527.31
2022-09-05T09:20:14.930Z,97516.66
2022-09-05T09:23:32.172Z,97513.09
2022-09-05T09:26:15.887Z,97517.03
2022-09-05T09:29:02.469Z,97511.81
2022-09-05T09:31:59.196Z,97514.28
2022-09-05T09:34:47.356Z,97509.41
2022-09-05T09:37:49.858Z,97509.03
2022-09-05T09:40:30.067Z,97507.91
2022-09-05T09:43:27.383Z,97505.28
2022-09-05T09:46:18.298Z,97505.69
2022-09-05T09:49:02.462Z,97497.31
2022-09-05T09:51:34.838Z,97495.56
2022-09-05T09:54:10.590Z,97487.75
2022-09-05T09:57:11.216Z,97491.56
2022-09-05T10:00:02.824Z,97489.13
2022-09-05T10:05:27.482Z,97487.81
2022-09-05T10:10:38.186Z,97495.56
2022-09-05T10:10:54.222Z,97489.25
2022-09-05T10:12:03.420Z,97480.19
2022-09-05T10:14:50.682Z,97473.34
2022-09-05T10:17:51.540Z,97472.09
2022-09-05T10:20:29.800Z,97468.69
2022-09-05T10:23:11.705Z,97481.38
2022-09-05T10:26:05.878Z,97468.75
2022-09-05T10:28:45.832Z,97466.72
2022-09-05T10:33:45.497Z,97463.88
2022-09-05T10:35:17.696Z,97464.50
2022-09-05T10:37:15.185Z,97460.28
2022-09-05T10:39:47.152Z,97463.00
2022-09-05T10:42:50.167Z,97459.56
2022-09-05T10:45:53.430Z,97453.31
2022-09-05T10:48:31.016Z,97447.00
2022-09-05T10:51:04.530Z,97451.97
2022-09-05T10:53:49.469Z,97442.38
2022-09-05T10:56:19.497Z,97445.38
2022-09-05T11:01:34.771Z,97440.09
2022-09-05T11:02:26.038Z,97432.13
2022-09-05T11:04:50.451Z,97430.94
2022-09-05T11:07:38.794Z,97425.94
2022-09-05T11:10:12.274Z,97423.53
2022-09-05T11:13:01.383Z,97427.50
2022-09-05T11:15:44.100Z,97419.72
2022-09-05T11:18:56.041Z,97418.47
2022-09-05T11:22:22.032Z,97415.56
2022-09-05T11:24:58.763Z,97411.84
2022-09-05T11:27:40.219Z,97420.47
2022-09-05T11:30:28.925Z,97406.66
2022-09-05T11:39:48.425Z,97407.06
2022-09-05T11:39:52.871Z,97403.00
2022-09-05T11:40:31.265Z,97398.72
2022-09-05T11:42:48.817Z,97408.59
2022-09-05T11:45:24.822Z,97405.16
2022-09-05T11:48:20.019Z,97405.72
2022-09-05T11:51:15.610Z,97401.47
2022-09-05T11:54:16.422Z,97398.63
2022-09-05T11:57:32.033Z,97399.31
2022-09-05T12:00:33.687Z,97395.16
2022-09-05T12:04:00.286Z,97395.88
2022-09-05T12:06:47.782Z,97388.31
2022-09-05T12:09:23.819Z,97384.31
2022-09-05T12:11:56.943Z,97382.34
2022-09-05T12:14:54.921Z,97378.91
2022-09-05T12:17:37.981Z,97383.78
2022-09-05T12:20:21.929Z,97389.34
2022-09-05T12:23:04.197Z,97395.59
2022-09-05T12:27:41.007Z,97393.47
2022-09-05T12:29:27.199Z,97398.38
2022-09-05T12:33:32.775Z,97387.69
2022-09-05T12:36:09.947Z,97381.97
2022-09-05T12:40:45.118Z,97376.19
2022-09-05T12:41:45.236Z,97377.03
2022-09-05T12:44:42.556Z,97372.22
2022-09-05T12:47:18.666Z,97368.75
2022-09-05T12:50:15.309Z,97365.78
2022-09-05T12:52:47.128Z,97364.75
2022-09-05T12:55:34.152Z,97363.84
2022-09-05T13:02:01.475Z,97362.88
2022-09-05T13:03:09.851Z,97371.78
2022-09-05T13:04:20.208Z,97367.38
2022-09-05T13:06:57.313Z,97372.19
2022-09-05T13:10:58.818Z,97375.47
2022-09-05T13:14:52.473Z,97388.63
2022-09-05T13:15:27.337Z,97399.03
2022-09-05T13:18:12.029Z,97399.34
2022-09-05T13:20:51.293Z,97383.66
2022-09-05T13:23:35.730Z,97377.97
2022-09-05T13:26:08.032Z,97383.66
2022-09-05T13:28:56.674Z,97384.47
2022-09-05T13:37:54.326Z,97381.06
2022-09-05T13:37:58.803Z,97373.53
2022-09-05T13:38:16.291Z,97375.00
2022-09-05T13:40:19.603Z,97374.47
2022-09-05T13:43:05.246Z,97371.72
2022-09-05T13:45:35.129Z,97364.06
2022-09-05T13:48:27.625Z,97366.91
2022-09-05T13:51:00.048Z,97367.44
2022-09-05T13:53:36.859Z,97370.00
2022-09-05T13:56:25.203Z,97360.09
2022-09-05T13:58:59.984Z,97355.41
2022-09-05T14:01:54.624Z,97353.53
2022-09-05T14:05:13.558Z,97341.63
2022-09-05T14:08:03.678Z,97348.81
2022-09-05T14:11:02.217Z,97345.28
2022-09-05T14:13:56.340Z,97343.78
2022-09-05T14:16:27.021Z,97338.75
2022-09-05T14:19:13.228Z,97347.63
2022-09-05T14:21:42.149Z,97345.88
2022-09-05T14:24:27.949Z,97339.28
2022-09-05T14:27:03.058Z,97336.16
2022-09-05T14:29:39.085Z,97330.28
2022-09-05T14:37:38.624Z,97334.97
2022-09-05T14:37:38.870Z,97326.44
2022-09-05T14:38:15.755Z,97319.69
2022-09-05T14:41:30.323Z,97325.94
2022-09-05T14:44:33.549Z,97304.03
2022-09-05T14:47:06.387Z,97305.50
2022-09-05T14:49:53.728Z,97315.13
2022-09-05T14:52:29.415Z,97310.09
2022-09-05T15:02:53.581Z,97312.91
2022-09-05T15:02:58.504Z,97316.06
2022-09-05T15:06:33.015Z,97316.34
2022-09-05T15:12:14.346Z,97314.41
2022-09-05T15:12:28.591Z,97309.78
2022-09-05T15:14:37.363Z,97298.63
2022-09-05T15:17:05.618Z,97295.84
2022-09-05T15:20:08.106Z,97287.59
2022-09-05T15:22:38.103Z,97282.19
2022-09-05T15:25:17.253Z,97279.56
2022-09-05T15:27:46.225Z,97279.09
2022-09-05T15:30:35.652Z,97281.91
2022-09-05T15:33:25.809Z,97273.88
2022-09-05T15:35:53.423Z,97263.19
2022-09-05T15:38:28.063Z,97268.34
2022-09-05T15:41:02.396Z,97260.50
2022-09-05T15:43:36.458Z,97255.63
2022-09-05T15:46:07.255Z,97256.16
2022-09-05T15:48:35.631Z,97244.72
2022-09-05T15:51:17.312Z,97240.59
2022-09-05T15:53:44.250Z,97240.81
2022-09-05T15:56:10.883Z,97238.41
2022-09-05T15:58:52.726Z,97228.25
2022-09-05T16:01:58.501Z,97218.59
2022-09-05T16:08:32.751Z,97210.44
2022-09-05T16:10:33.562Z,97206.41
2022-09-05T16:10:45.712Z,97207.78
2022-09-05T16:12:56.076Z,97206.00
2022-09-05T16:21:09.596Z,97206.00
2022-09-05T16:23:16.852Z,97190.63
2022-09-05T16:23:25.850Z,97194.25
2022-09-05T16:24:24.903Z,97179.19
2022-09-05T16:27:07.809Z,97178.31
2022-09-05T16:29:46.344Z,97173.13
2022-09-05T16:32:22.888Z,97169.06
2022-09-05T16:35:00.500Z,97171.38
2022-09-05T16:38:01.361Z,97168.78
2022-09-05T16:40:38.777Z,97159.13
2022-09-05T16:43:15.588Z,97160.16
2022-09-05T16:46:07.837Z,97150.41
2022-09-05T16:48:40.587Z,97148.31
2022-09-05T16:51:35.014Z,97150.81
2022-09-05T16:54:20.872Z,97149.88
2022-09-05T16:56:55.327Z,97148.00
2022-09-05T16:59:26.576Z,97161.16
2022-09-05T17:02:07.494Z,97156.06
2022-09-05T17:05:14.500Z,97160.00
2022-09-05T17:08:18.775Z,97151.81
2022-09-05T17:10:57.472Z,97160.59
2022-09-05T17:13:52.690Z,97157.22
2022-09-05T17:16:45.387Z,97163.84
2022-09-05T17:19:22.100Z,97162.41
2022-09-05T17:24:24.437Z,97162.22
2022-09-05T17:29:31.266Z,97162.50
2022-09-05T17:29:40.095Z,97170.41
2022-09-05T17:31:49.000Z,97171.84
2022-09-05T17:33:45.535Z,97163.59
2022-09-05T17:36:15.898Z,97161.13
2022-09-05T17:38:55.026Z,97165.00
2022-09-05T17:41:55.842Z,97166.66
2022-09-05T17:44:29.790Z,97179.41
2022-09-05T17:47:15.164Z,97166.34
2022-09-05T17:49:47.189Z,97171.38
2022-09-05T17:52:16.415Z,97168.97
2022-09-05T17:54:49.910Z,97168.59
2022-09-05T17:57:29.190Z,97166.19
2022-09-05T18:00:03.827Z,97165.09
2022-09-05T18:02:56.660Z,97166.81
2022-09-05T18:05:57.558Z,97173.56
2022-09-05T18:08:44.870Z,97175.34
2022-09-05T18:11:18.059Z,97182.09
2022-09-05T18:14:01.104Z,97176.50
2022-09-05T18:19:34.107Z,97179.13
2022-09-05T18:22:08.642Z,97180.44
2022-09-05T18:24:40.121Z,97179.69
2022-09-05T18:28:04.488Z,97176.81
2022-09-05T18:33:56.325Z,97186.81
2022-09-05T18:35:54.328Z,97190.84
2022-09-05T18:38:29.734Z,97187.97
2022-09-05T18:41:13.739Z,97179.47
2022-09-05T18:43:45.024Z,97179.22
2022-09-05T18:46:32.833Z,97186.72
2022-09-05T18:50:21.841Z,97184.44
2022-09-05T18:52:04.706Z,97176.06
2022-09-05T18:54:34.626Z,97182.88
2022-09-05T18:57:26.939Z,97186.81
2022-09-05T19:00:00.454Z,97196.38
2022-09-05T19:02:59.092Z,97189.16
2022-09-05T19:05:40.254Z,97189.03
2022-09-05T19:08:26.750Z,97188.84
2022-09-05T19:10:58.749Z,97194.25
2022-09-05T19:13:37.530Z,97187.81
2022-09-05T19:16:43.909Z,97193.22
2022-09-05T19:19:10.678Z,97189.00
2022-09-05T19:22:33.354Z,97186.00
2022-09-05T19:24:49.027Z,97190.75
2022-09-05T19:29:33.209Z,97189.88
2022-09-05T19:36:53.486Z,97181.47
2022-09-05T19:37:07.776Z,97164.63
2022-09-05T19:37:22.229Z,97171.03
2022-09-05T19:38:49.390Z,97173.03
2022-09-05T19:47:34.630Z,97170.19
2022-09-05T19:47:37.946Z,97175.56
2022-09-05T19:47:44.061Z,97171.94
2022-09-05T19:49:56.913Z,97175.91
2022-09-05T19:52:23.718Z,97182.94
2022-09-05T19:54:51.450Z,97183.00
2022-09-05T19:57:20.250Z,97184.34
2022-09-05T19:59:53.090Z,97190.53
2022-09-05T20:02:25.314Z,97193.31
2022-09-05T20:04:54.955Z,97194.03
2022-09-05T20:07:26.588Z,97192.63
2022-09-05T20:09:54.882Z,97191.78
2022-09-05T20:12:38.178Z,97194.28
2022-09-05T20:15:34.659Z,97201.84
2022-09-05T20:18:42.931Z,97194.22
2022-09-05T20:21:22.907Z,97194.09
2022-09-05T20:23:51.626Z,97201.56
2022-09-05T20:26:21.413Z,97193.81
2022-09-05T20:28:54.010Z,97205.56
2022-09-05T20:31:27.106Z,97208.25
2022-09-05T20:35:09.180Z,97204.69
2022-09-05T20:43:15.201Z,97208.75
2022-09-05T20:43:18.456Z,97205.97
2022-09-05T20:43:18.586Z,97203.97
2022-09-05T20:45:45.444Z,97191.31
2022-09-05T20:54:07.983Z,97189.19
2022-09-05T20:54:19.417Z,97188.34
2022-09-05T20:54:24.832Z,97178.47
2022-09-05T20:56:48.255Z,97180.44
2022-09-05T20:59:37.365Z,97185.28
2022-09-05T21:02:06.751Z,97173.97
2022-09-05T21:04:35.855Z,97170.44
2022-09-05T21:07:19.486Z,97178.25
2022-09-05T21:09:49.913Z,97169.94
2022-09-05T21:12:27.678Z,97161.81
2022-09-05T21:15:30.659Z,97170.19
2022-09-05T21:18:05.667Z,97175.19
2022-09-05T21:20:32.629Z,97167.63
2022-09-05T21:22:59.310Z,97166.19
2022-09-05T21:25:44.118Z,97164.69
2022-09-05T21:28:24.360Z,97162.50
2022-09-05T21:31:08.841Z,97158.25
2022-09-05T21:33:45.295Z,97160.25
2022-09-05T21:36:15.197Z,97166.38
2022-09-05T21:38:42.844Z,97164.28
2022-09-05T21:41:10.695Z,97170.56
2022-09-05T21:47:33.622Z,97164.88
2022-09-05T21:47:40.488Z,97159.25
2022-09-05T21:49:18.363Z,97160.47
2022-09-05T21:51:48.221Z,97167.94
2022-09-05T21:59:22.192Z,97169.22
2022-09-05T21:59:26.995Z,97178.91
2022-09-05T21:59:57.761Z,97183.00
2022-09-05T22:02:32.544Z,97181.53
2022-09-05T22:05:03.815Z,97186.97
2022-09-05T22:07:34.491Z,97189.00
2022-09-05T22:10:04.153Z,97186.97
2022-09-05T22:12:33.557Z,97179.38
2022-09-05T22:15:10.104Z,97185.50
2022-09-05T22:17:49.218Z,97181.44
2022-09-05T22:20:17.481Z,97186.50
2022-09-05T22:22:45.246Z,97178.97
2022-09-05T22:25:28.723Z,97179.72
2022-09-05T22:28:06.242Z,97170.84
2022-09-05T22:30:36.702Z,97166.81
2022-09-05T22:33:05.472Z,97161.47
2022-09-05T22:35:34.344Z,97164.78
2022-09-05T22:38:03.525Z,97165.31
2022-09-05T22:40:32.412Z,97174.91
2022-09-05T22:43:01.735Z,97169.38
2022-09-05T22:45:29.786Z,97172.28
2022-09-05T22:47:57.227Z,97164.66
2022-09-05T22:50:24.578Z,97167.38
2022-09-05T22:52:51.282Z,97169.50
2022-09-05T22:55:18.392Z,97166.09
2022-09-05T22:57:45.075Z,97164.66
2022-09-05T23:00:12.087Z,97161.13
2022-09-05T23:02:38.759Z,97163.25
2022-09-05T23:05:06.437Z,97152.84
2022-09-05T23:07:33.162Z,97158.41
2022-09-05T23:09:59.912Z,97164.44
2022-09-05T23:12:26.958Z,97169.28
2022-09-05T23:14:53.805Z,97169.28
2022-09-05T23:17:20.477Z,97168.63
2022-09-05T23:19:47.249Z,97165.25
2022-09-05T23:22:13.921Z,97165.38
2022-09-05T23:24:40.635Z,97173.13
2022-09-05T23:27:07.332Z,97180.09
2022-09-05T23:29:34.133Z,97194.59
2022-09-05T23:32:00.827Z,97241.25
2022-09-05T23:34:27.560Z,97236.97
2022-09-05T23:36:56.390Z,97187.06
2022-09-05T23:39:23.323Z,97214.72
2022-09-05T23:41:50.067Z,97236.25
2022-09-05T23:44:16.803Z,97237.03
2022-09-05T23:46:44.196Z,97213.84
2022-09-05T23:49:11.005Z,97212.00
2022-09-05T23:51:37.634Z,97215.19
2022-09-05T23:54:04.405Z,97220.09
2022-09-05T23:56:31.106Z,97220.53
2022-09-05T23:58:57.802Z,97222.81
